Terminal Aerodrome Forecast
Issued by NWS

Home | Current Version | Previous Version | Text Only | Print | Product List | Glossary Off
Versions: 1 2 3 4 5 6 7 8 9 10 11 12 13 14

000
FTUS43 KGRB 272325
TAFCWA
TAF
KCWA 272325Z 2800/2824 21010KT P6SM SCT060 SCT200
     FM281000 16007KT P6SM BKN120 WS020/20035KT
     FM281400 17012G20KT P6SM BKN040
      TEMPO 2815/2819 4SM -TSRA OVC025CB
     FM281900 18013G22KT P6SM -SHRA BKN020
      TEMPO 2819/2823 3SM TSRA OVC015CB=

USA.gov is the U.S. government's official web portal to all federal, state and local government web resources and services.